sensor_id;sensor_type;location;lat;lon;timestamp;P1;durP1;ratioP1;P2;durP2;ratioP2
32038;SDS011;18549;42.286;22.688;2022-10-26T00:01:35;33.70;;;13.23;;
32038;SDS011;18549;42.286;22.688;2022-10-26T00:04:02;40.67;;;14.52;;
32038;SDS011;18549;42.286;22.688;2022-10-26T00:06:29;43.17;;;14.17;;
32038;SDS011;18549;42.286;22.688;2022-10-26T00:08:56;40.65;;;13.30;;
32038;SDS011;18549;42.286;22.688;2022-10-26T00:11:23;34.28;;;12.95;;
32038;SDS011;18549;42.286;22.688;2022-10-26T00:13:50;34.37;;;14.47;;
32038;SDS011;18549;42.286;22.688;2022-10-26T00:16:19;32.93;;;14.97;;
32038;SDS011;18549;42.286;22.688;2022-10-26T00:18:48;34.67;;;14.57;;
32038;SDS011;18549;42.286;22.688;2022-10-26T00:21:15;39.83;;;16.83;;
32038;SDS011;18549;42.286;22.688;2022-10-26T00:23:43;36.63;;;16.70;;
32038;SDS011;18549;42.286;22.688;2022-10-26T00:26:09;35.87;;;17.40;;
32038;SDS011;18549;42.286;22.688;2022-10-26T00:28:37;41.70;;;15.47;;
32038;SDS011;18549;42.286;22.688;2022-10-26T00:31:04;37.57;;;15.50;;
32038;SDS011;18549;42.286;22.688;2022-10-26T00:33:33;33.13;;;14.53;;
32038;SDS011;18549;42.286;22.688;2022-10-26T00:36:00;29.00;;;14.17;;
32038;SDS011;18549;42.286;22.688;2022-10-26T00:38:27;26.23;;;13.87;;
32038;SDS011;18549;42.286;22.688;2022-10-26T00:40:54;31.37;;;14.37;;
32038;SDS011;18549;42.286;22.688;2022-10-26T00:43:33;29.83;;;14.27;;
32038;SDS011;18549;42.286;22.688;2022-10-26T00:46:02;27.03;;;12.57;;
32038;SDS011;18549;42.286;22.688;2022-10-26T00:48:34;24.97;;;11.17;;
32038;SDS011;18549;42.286;22.688;2022-10-26T00:51:04;45.67;;;13.53;;
32038;SDS011;18549;42.286;22.688;2022-10-26T00:53:34;24.73;;;13.73;;
32038;SDS011;18549;42.286;22.688;2022-10-26T00:56:01;31.77;;;13.23;;
32038;SDS011;18549;42.286;22.688;2022-10-26T00:58:28;31.60;;;14.00;;
32038;SDS011;18549;42.286;22.688;2022-10-26T01:00:56;35.57;;;12.47;;
32038;SDS011;18549;42.286;22.688;2022-10-26T01:03:23;33.33;;;13.03;;
32038;SDS011;18549;42.286;22.688;2022-10-26T01:05:54;41.63;;;13.33;;
32038;SDS011;18549;42.286;22.688;2022-10-26T01:08:23;33.08;;;13.48;;
32038;SDS011;18549;42.286;22.688;2022-10-26T01:10:52;26.30;;;12.83;;
32038;SDS011;18549;42.286;22.688;2022-10-26T01:13:19;34.95;;;14.35;;
32038;SDS011;18549;42.286;22.688;2022-10-26T01:15:47;29.53;;;13.47;;
32038;SDS011;18549;42.286;22.688;2022-10-26T01:18:19;26.43;;;13.00;;
32038;SDS011;18549;42.286;22.688;2022-10-26T01:26:52;29.93;;;12.93;;
32038;SDS011;18549;42.286;22.688;2022-10-26T01:29:35;30.07;;;13.73;;
32038;SDS011;18549;42.286;22.688;2022-10-26T01:32:25;33.67;;;11.70;;
32038;SDS011;18549;42.286;22.688;2022-10-26T01:34:56;31.33;;;11.10;;
32038;SDS011;18549;42.286;22.688;2022-10-26T01:37:31;30.07;;;11.67;;
32038;SDS011;18549;42.286;22.688;2022-10-26T01:40:02;32.47;;;10.77;;
32038;SDS011;18549;42.286;22.688;2022-10-26T01:42:34;30.10;;;12.10;;
32038;SDS011;18549;42.286;22.688;2022-10-26T01:45:07;23.20;;;10.50;;
32038;SDS011;18549;42.286;22.688;2022-10-26T01:47:38;29.60;;;11.57;;
32038;SDS011;18549;42.286;22.688;2022-10-26T01:50:06;30.60;;;10.63;;
32038;SDS011;18549;42.286;22.688;2022-10-26T01:52:35;23.97;;;11.27;;
32038;SDS011;18549;42.286;22.688;2022-10-26T01:55:02;25.60;;;10.70;;
32038;SDS011;18549;42.286;22.688;2022-10-26T01:57:30;19.27;;;11.43;;
32038;SDS011;18549;42.286;22.688;2022-10-26T02:00:03;20.47;;;9.40;;
32038;SDS011;18549;42.286;22.688;2022-10-26T02:05:35;30.30;;;11.70;;
32038;SDS011;18549;42.286;22.688;2022-10-26T02:11:12;29.27;;;13.23;;
32038;SDS011;18549;42.286;22.688;2022-10-26T02:13:47;25.53;;;10.77;;
32038;SDS011;18549;42.286;22.688;2022-10-26T02:16:21;25.27;;;11.40;;
32038;SDS011;18549;42.286;22.688;2022-10-26T02:18:54;24.87;;;13.23;;
32038;SDS011;18549;42.286;22.688;2022-10-26T02:21:28;34.97;;;13.53;;
32038;SDS011;18549;42.286;22.688;2022-10-26T02:24:00;29.70;;;14.73;;
32038;SDS011;18549;42.286;22.688;2022-10-26T02:26:28;34.80;;;12.63;;
32038;SDS011;18549;42.286;22.688;2022-10-26T02:28:58;32.47;;;12.93;;
32038;SDS011;18549;42.286;22.688;2022-10-26T02:31:29;24.23;;;11.87;;
32038;SDS011;18549;42.286;22.688;2022-10-26T02:33:58;30.30;;;12.97;;
32038;SDS011;18549;42.286;22.688;2022-10-26T02:36:29;27.90;;;12.40;;
32038;SDS011;18549;42.286;22.688;2022-10-26T02:38:57;28.37;;;12.50;;
32038;SDS011;18549;42.286;22.688;2022-10-26T02:41:25;29.20;;;15.10;;
32038;SDS011;18549;42.286;22.688;2022-10-26T02:43:56;28.00;;;11.27;;
32038;SDS011;18549;42.286;22.688;2022-10-26T02:46:28;23.50;;;11.73;;
32038;SDS011;18549;42.286;22.688;2022-10-26T02:48:55;19.57;;;9.40;;
32038;SDS011;18549;42.286;22.688;2022-10-26T02:51:26;25.50;;;9.97;;
32038;SDS011;18549;42.286;22.688;2022-10-26T02:53:57;27.80;;;10.47;;
32038;SDS011;18549;42.286;22.688;2022-10-26T02:56:27;25.20;;;11.77;;
32038;SDS011;18549;42.286;22.688;2022-10-26T02:58:58;30.03;;;10.70;;
32038;SDS011;18549;42.286;22.688;2022-10-26T03:01:28;31.80;;;12.33;;
32038;SDS011;18549;42.286;22.688;2022-10-26T03:03:57;30.50;;;12.57;;
32038;SDS011;18549;42.286;22.688;2022-10-26T03:06:26;34.37;;;12.60;;
32038;SDS011;18549;42.286;22.688;2022-10-26T03:08:53;20.67;;;11.17;;
32038;SDS011;18549;42.286;22.688;2022-10-26T03:11:20;27.27;;;11.00;;
32038;SDS011;18549;42.286;22.688;2022-10-26T03:13:49;27.60;;;11.73;;
32038;SDS011;18549;42.286;22.688;2022-10-26T03:16:15;28.07;;;12.23;;
32038;SDS011;18549;42.286;22.688;2022-10-26T03:18:42;26.33;;;11.93;;
32038;SDS011;18549;42.286;22.688;2022-10-26T03:21:09;25.97;;;9.70;;
32038;SDS011;18549;42.286;22.688;2022-10-26T03:23:37;24.40;;;10.47;;
32038;SDS011;18549;42.286;22.688;2022-10-26T03:26:04;32.50;;;11.77;;
32038;SDS011;18549;42.286;22.688;2022-10-26T03:28:31;30.83;;;11.67;;
32038;SDS011;18549;42.286;22.688;2022-10-26T03:30:58;38.77;;;14.10;;
32038;SDS011;18549;42.286;22.688;2022-10-26T03:33:24;32.90;;;11.20;;
32038;SDS011;18549;42.286;22.688;2022-10-26T03:35:54;36.93;;;12.27;;
32038;SDS011;18549;42.286;22.688;2022-10-26T03:38:21;27.33;;;12.20;;
32038;SDS011;18549;42.286;22.688;2022-10-26T03:40:50;23.40;;;12.20;;
32038;SDS011;18549;42.286;22.688;2022-10-26T03:43:17;26.83;;;10.77;;
32038;SDS011;18549;42.286;22.688;2022-10-26T03:45:44;40.00;;;10.80;;
32038;SDS011;18549;42.286;22.688;2022-10-26T03:48:10;28.63;;;10.93;;
32038;SDS011;18549;42.286;22.688;2022-10-26T03:50:37;24.87;;;11.23;;
32038;SDS011;18549;42.286;22.688;2022-10-26T03:53:04;21.87;;;11.33;;
32038;SDS011;18549;42.286;22.688;2022-10-26T03:55:31;26.07;;;12.47;;
32038;SDS011;18549;42.286;22.688;2022-10-26T03:57:59;26.40;;;10.47;;
32038;SDS011;18549;42.286;22.688;2022-10-26T04:00:26;26.47;;;10.47;;
32038;SDS011;18549;42.286;22.688;2022-10-26T04:02:53;27.53;;;12.47;;
32038;SDS011;18549;42.286;22.688;2022-10-26T04:05:21;25.97;;;12.17;;
32038;SDS011;18549;42.286;22.688;2022-10-26T04:07:50;27.93;;;12.67;;
32038;SDS011;18549;42.286;22.688;2022-10-26T04:10:18;30.63;;;14.33;;
32038;SDS011;18549;42.286;22.688;2022-10-26T04:12:45;26.73;;;12.30;;
32038;SDS011;18549;42.286;22.688;2022-10-26T04:15:13;24.93;;;11.23;;
32038;SDS011;18549;42.286;22.688;2022-10-26T04:17:40;33.00;;;12.17;;
32038;SDS011;18549;42.286;22.688;2022-10-26T04:20:07;22.47;;;11.63;;
32038;SDS011;18549;42.286;22.688;2022-10-26T04:22:35;34.13;;;10.93;;
32038;SDS011;18549;42.286;22.688;2022-10-26T04:25:02;30.23;;;11.60;;
32038;SDS011;18549;42.286;22.688;2022-10-26T04:27:29;31.50;;;14.57;;
32038;SDS011;18549;42.286;22.688;2022-10-26T04:29:55;26.43;;;13.13;;
32038;SDS011;18549;42.286;22.688;2022-10-26T04:32:23;32.47;;;13.33;;
32038;SDS011;18549;42.286;22.688;2022-10-26T04:34:50;30.37;;;15.43;;
32038;SDS011;18549;42.286;22.688;2022-10-26T04:37:18;27.73;;;14.13;;
32038;SDS011;18549;42.286;22.688;2022-10-26T04:39:45;33.57;;;13.37;;
32038;SDS011;18549;42.286;22.688;2022-10-26T04:42:12;33.90;;;14.57;;
32038;SDS011;18549;42.286;22.688;2022-10-26T04:44:38;25.27;;;13.03;;
32038;SDS011;18549;42.286;22.688;2022-10-26T04:47:05;34.00;;;14.30;;
32038;SDS011;18549;42.286;22.688;2022-10-26T04:49:36;37.87;;;15.33;;
32038;SDS011;18549;42.286;22.688;2022-10-26T04:52:04;37.13;;;17.73;;
32038;SDS011;18549;42.286;22.688;2022-10-26T04:54:30;43.17;;;18.10;;
32038;SDS011;18549;42.286;22.688;2022-10-26T04:56:57;39.20;;;17.27;;
32038;SDS011;18549;42.286;22.688;2022-10-26T04:59:24;41.30;;;20.80;;
32038;SDS011;18549;42.286;22.688;2022-10-26T05:01:51;61.20;;;21.03;;
32038;SDS011;18549;42.286;22.688;2022-10-26T05:04:18;64.10;;;24.33;;
32038;SDS011;18549;42.286;22.688;2022-10-26T05:06:46;44.80;;;23.97;;
32038;SDS011;18549;42.286;22.688;2022-10-26T05:09:13;51.13;;;25.43;;
32038;SDS011;18549;42.286;22.688;2022-10-26T05:11:40;62.00;;;22.43;;
32038;SDS011;18549;42.286;22.688;2022-10-26T05:14:12;58.10;;;24.83;;
32038;SDS011;18549;42.286;22.688;2022-10-26T05:16:39;61.80;;;23.27;;
32038;SDS011;18549;42.286;22.688;2022-10-26T05:19:06;53.07;;;22.40;;
32038;SDS011;18549;42.286;22.688;2022-10-26T05:21:32;43.80;;;20.07;;
32038;SDS011;18549;42.286;22.688;2022-10-26T05:24:00;48.73;;;20.30;;
32038;SDS011;18549;42.286;22.688;2022-10-26T05:26:27;43.73;;;21.10;;
32038;SDS011;18549;42.286;22.688;2022-10-26T05:28:54;47.10;;;19.47;;
32038;SDS011;18549;42.286;22.688;2022-10-26T05:31:21;48.37;;;20.83;;
32038;SDS011;18549;42.286;22.688;2022-10-26T05:33:48;59.50;;;27.63;;
32038;SDS011;18549;42.286;22.688;2022-10-26T05:36:15;69.40;;;31.13;;
32038;SDS011;18549;42.286;22.688;2022-10-26T05:38:42;78.00;;;34.63;;
32038;SDS011;18549;42.286;22.688;2022-10-26T05:41:11;62.27;;;32.70;;
32038;SDS011;18549;42.286;22.688;2022-10-26T05:43:38;78.47;;;35.10;;
32038;SDS011;18549;42.286;22.688;2022-10-26T05:46:04;63.70;;;35.50;;
32038;SDS011;18549;42.286;22.688;2022-10-26T05:48:31;65.27;;;33.70;;
32038;SDS011;18549;42.286;22.688;2022-10-26T05:50:58;59.80;;;31.00;;
32038;SDS011;18549;42.286;22.688;2022-10-26T05:53:25;52.57;;;27.23;;
32038;SDS011;18549;42.286;22.688;2022-10-26T05:55:56;48.63;;;27.77;;
32038;SDS011;18549;42.286;22.688;2022-10-26T05:58:25;68.10;;;29.70;;
32038;SDS011;18549;42.286;22.688;2022-10-26T06:00:57;50.30;;;30.13;;
32038;SDS011;18549;42.286;22.688;2022-10-26T06:03:37;74.30;;;34.83;;
32038;SDS011;18549;42.286;22.688;2022-10-26T06:06:16;70.07;;;33.07;;
32038;SDS011;18549;42.286;22.688;2022-10-26T06:08:44;73.30;;;33.83;;
32038;SDS011;18549;42.286;22.688;2022-10-26T06:11:11;65.27;;;31.17;;
32038;SDS011;18549;42.286;22.688;2022-10-26T06:13:40;60.37;;;29.93;;
32038;SDS011;18549;42.286;22.688;2022-10-26T06:16:15;69.33;;;29.77;;
32038;SDS011;18549;42.286;22.688;2022-10-26T06:18:54;76.33;;;30.03;;
32038;SDS011;18549;42.286;22.688;2022-10-26T06:21:34;65.93;;;33.10;;
32038;SDS011;18549;42.286;22.688;2022-10-26T06:24:11;63.90;;;31.37;;
32038;SDS011;18549;42.286;22.688;2022-10-26T06:26:45;56.87;;;31.67;;
32038;SDS011;18549;42.286;22.688;2022-10-26T06:29:23;55.50;;;29.93;;
32038;SDS011;18549;42.286;22.688;2022-10-26T06:32:00;69.03;;;30.77;;
32038;SDS011;18549;42.286;22.688;2022-10-26T06:34:28;64.87;;;29.37;;
32038;SDS011;18549;42.286;22.688;2022-10-26T06:36:58;64.73;;;29.97;;
32038;SDS011;18549;42.286;22.688;2022-10-26T06:39:26;60.50;;;29.70;;
32038;SDS011;18549;42.286;22.688;2022-10-26T06:41:57;61.97;;;27.67;;
32038;SDS011;18549;42.286;22.688;2022-10-26T06:44:29;60.53;;;29.97;;
32038;SDS011;18549;42.286;22.688;2022-10-26T06:46:58;45.50;;;25.40;;
32038;SDS011;18549;42.286;22.688;2022-10-26T06:49:32;73.33;;;32.83;;
32038;SDS011;18549;42.286;22.688;2022-10-26T06:52:02;73.13;;;36.13;;
32038;SDS011;18549;42.286;22.688;2022-10-26T06:54:41;75.00;;;36.53;;
32038;SDS011;18549;42.286;22.688;2022-10-26T06:57:13;46.53;;;20.97;;
32038;SDS011;18549;42.286;22.688;2022-10-26T06:59:43;41.10;;;17.10;;
32038;SDS011;18549;42.286;22.688;2022-10-26T07:02:13;43.40;;;16.83;;
32038;SDS011;18549;42.286;22.688;2022-10-26T07:04:41;32.23;;;14.87;;
32038;SDS011;18549;42.286;22.688;2022-10-26T07:07:08;43.83;;;15.77;;
32038;SDS011;18549;42.286;22.688;2022-10-26T07:09:36;44.60;;;17.30;;
32038;SDS011;18549;42.286;22.688;2022-10-26T07:12:03;32.43;;;16.57;;
32038;SDS011;18549;42.286;22.688;2022-10-26T07:14:30;36.07;;;17.00;;
32038;SDS011;18549;42.286;22.688;2022-10-26T07:16:58;37.77;;;15.03;;
32038;SDS011;18549;42.286;22.688;2022-10-26T07:19:25;37.93;;;14.57;;
32038;SDS011;18549;42.286;22.688;2022-10-26T07:21:53;27.93;;;12.80;;
32038;SDS011;18549;42.286;22.688;2022-10-26T07:24:24;34.93;;;13.00;;
32038;SDS011;18549;42.286;22.688;2022-10-26T07:26:55;33.87;;;12.20;;
32038;SDS011;18549;42.286;22.688;2022-10-26T07:29:26;27.47;;;13.33;;
32038;SDS011;18549;42.286;22.688;2022-10-26T07:32:18;33.20;;;9.67;;
32038;SDS011;18549;42.286;22.688;2022-10-26T07:34:48;22.13;;;9.67;;
32038;SDS011;18549;42.286;22.688;2022-10-26T07:37:15;30.30;;;10.97;;
32038;SDS011;18549;42.286;22.688;2022-10-26T07:39:43;35.30;;;11.20;;
32038;SDS011;18549;42.286;22.688;2022-10-26T07:42:13;24.60;;;11.37;;
32038;SDS011;18549;42.286;22.688;2022-10-26T07:44:54;40.13;;;13.93;;
32038;SDS011;18549;42.286;22.688;2022-10-26T07:47:23;30.43;;;12.77;;
32038;SDS011;18549;42.286;22.688;2022-10-26T07:49:51;33.27;;;12.20;;
32038;SDS011;18549;42.286;22.688;2022-10-26T07:52:18;21.53;;;11.60;;
32038;SDS011;18549;42.286;22.688;2022-10-26T07:54:46;29.27;;;11.93;;
32038;SDS011;18549;42.286;22.688;2022-10-26T07:57:14;31.93;;;12.43;;
32038;SDS011;18549;42.286;22.688;2022-10-26T07:59:42;29.13;;;12.37;;
32038;SDS011;18549;42.286;22.688;2022-10-26T08:02:10;38.57;;;12.70;;
32038;SDS011;18549;42.286;22.688;2022-10-26T08:04:39;36.07;;;13.23;;
32038;SDS011;18549;42.286;22.688;2022-10-26T08:07:06;34.07;;;11.40;;
32038;SDS011;18549;42.286;22.688;2022-10-26T08:09:33;37.10;;;13.37;;
32038;SDS011;18549;42.286;22.688;2022-10-26T08:12:01;27.57;;;13.90;;
32038;SDS011;18549;42.286;22.688;2022-10-26T08:14:28;37.37;;;13.20;;
32038;SDS011;18549;42.286;22.688;2022-10-26T08:16:56;29.03;;;12.43;;
32038;SDS011;18549;42.286;22.688;2022-10-26T08:19:23;31.27;;;11.23;;
32038;SDS011;18549;42.286;22.688;2022-10-26T08:21:52;44.17;;;13.03;;
32038;SDS011;18549;42.286;22.688;2022-10-26T08:24:19;40.42;;;12.37;;
32038;SDS011;18549;42.286;22.688;2022-10-26T08:26:47;35.70;;;13.50;;
32038;SDS011;18549;42.286;22.688;2022-10-26T08:29:15;24.50;;;11.97;;
32038;SDS011;18549;42.286;22.688;2022-10-26T08:31:43;34.17;;;11.85;;
32038;SDS011;18549;42.286;22.688;2022-10-26T08:34:10;30.70;;;13.90;;
32038;SDS011;18549;42.286;22.688;2022-10-26T08:36:38;35.08;;;14.05;;
32038;SDS011;18549;42.286;22.688;2022-10-26T08:39:08;40.13;;;17.87;;
32038;SDS011;18549;42.286;22.688;2022-10-26T08:41:36;51.27;;;15.77;;
32038;SDS011;18549;42.286;22.688;2022-10-26T08:44:13;35.25;;;15.15;;
32038;SDS011;18549;42.286;22.688;2022-10-26T08:46:50;43.60;;;15.60;;
32038;SDS011;18549;42.286;22.688;2022-10-26T08:49:22;22.73;;;12.97;;
32038;SDS011;18549;42.286;22.688;2022-10-26T08:51:53;26.73;;;13.43;;
32038;SDS011;18549;42.286;22.688;2022-10-26T08:54:29;28.40;;;13.90;;
32038;SDS011;18549;42.286;22.688;2022-10-26T08:57:03;34.92;;;15.18;;
32038;SDS011;18549;42.286;22.688;2022-10-26T08:59:42;40.12;;;16.77;;
32038;SDS011;18549;42.286;22.688;2022-10-26T09:02:14;34.60;;;17.77;;
32038;SDS011;18549;42.286;22.688;2022-10-26T09:04:43;22.85;;;13.52;;
32038;SDS011;18549;42.286;22.688;2022-10-26T09:07:13;32.90;;;13.18;;
32038;SDS011;18549;42.286;22.688;2022-10-26T09:09:54;42.45;;;12.52;;
32038;SDS011;18549;42.286;22.688;2022-10-26T09:12:30;24.48;;;11.73;;
32038;SDS011;18549;42.286;22.688;2022-10-26T09:15:09;26.62;;;10.90;;
32038;SDS011;18549;42.286;22.688;2022-10-26T09:17:46;34.60;;;11.35;;
32038;SDS011;18549;42.286;22.688;2022-10-26T09:20:29;43.03;;;11.63;;
32038;SDS011;18549;42.286;22.688;2022-10-26T09:23:11;32.72;;;10.60;;
32038;SDS011;18549;42.286;22.688;2022-10-26T09:25:56;21.20;;;9.18;;
32038;SDS011;18549;42.286;22.688;2022-10-26T09:28:26;35.63;;;9.75;;
32038;SDS011;18549;42.286;22.688;2022-10-26T09:30:58;31.08;;;9.48;;
32038;SDS011;18549;42.286;22.688;2022-10-26T09:33:29;22.58;;;9.18;;
32038;SDS011;18549;42.286;22.688;2022-10-26T09:36:01;34.53;;;8.73;;
32038;SDS011;18549;42.286;22.688;2022-10-26T09:38:31;25.33;;;9.20;;
32038;SDS011;18549;42.286;22.688;2022-10-26T09:41:05;20.55;;;9.07;;
32038;SDS011;18549;42.286;22.688;2022-10-26T09:43:41;35.83;;;9.52;;
32038;SDS011;18549;42.286;22.688;2022-10-26T09:46:16;20.88;;;7.85;;
32038;SDS011;18549;42.286;22.688;2022-10-26T09:48:47;18.23;;;8.10;;
32038;SDS011;18549;42.286;22.688;2022-10-26T09:51:19;21.12;;;9.13;;
32038;SDS011;18549;42.286;22.688;2022-10-26T09:53:48;18.48;;;7.75;;
32038;SDS011;18549;42.286;22.688;2022-10-26T09:56:17;19.40;;;6.82;;
32038;SDS011;18549;42.286;22.688;2022-10-26T09:58:49;24.70;;;6.97;;
32038;SDS011;18549;42.286;22.688;2022-10-26T10:01:27;17.35;;;6.05;;
32038;SDS011;18549;42.286;22.688;2022-10-26T10:04:13;15.48;;;5.25;;
32038;SDS011;18549;42.286;22.688;2022-10-26T10:06:46;18.30;;;5.70;;
32038;SDS011;18549;42.286;22.688;2022-10-26T10:09:17;13.80;;;5.57;;
32038;SDS011;18549;42.286;22.688;2022-10-26T10:11:48;19.65;;;6.87;;
32038;SDS011;18549;42.286;22.688;2022-10-26T10:14:21;14.85;;;4.93;;
32038;SDS011;18549;42.286;22.688;2022-10-26T10:16:50;15.88;;;6.20;;
32038;SDS011;18549;42.286;22.688;2022-10-26T10:19:21;18.40;;;6.00;;
32038;SDS011;18549;42.286;22.688;2022-10-26T10:21:53;17.92;;;6.22;;
32038;SDS011;18549;42.286;22.688;2022-10-26T10:24:23;25.42;;;5.95;;
32038;SDS011;18549;42.286;22.688;2022-10-26T10:26:56;18.37;;;5.82;;
32038;SDS011;18549;42.286;22.688;2022-10-26T10:29:26;18.17;;;5.45;;
32038;SDS011;18549;42.286;22.688;2022-10-26T10:31:57;14.07;;;5.68;;
32038;SDS011;18549;42.286;22.688;2022-10-26T10:34:26;19.92;;;6.32;;
32038;SDS011;18549;42.286;22.688;2022-10-26T10:36:56;26.33;;;7.12;;
32038;SDS011;18549;42.286;22.688;2022-10-26T10:39:38;20.40;;;7.12;;
32038;SDS011;18549;42.286;22.688;2022-10-26T10:42:15;24.77;;;7.35;;
32038;SDS011;18549;42.286;22.688;2022-10-26T10:44:44;23.62;;;6.78;;
32038;SDS011;18549;42.286;22.688;2022-10-26T10:47:21;11.93;;;4.70;;
32038;SDS011;18549;42.286;22.688;2022-10-26T10:49:50;18.12;;;5.15;;
32038;SDS011;18549;42.286;22.688;2022-10-26T10:52:25;16.48;;;4.70;;
32038;SDS011;18549;42.286;22.688;2022-10-26T10:54:57;13.95;;;3.95;;
32038;SDS011;18549;42.286;22.688;2022-10-26T10:57:38;11.00;;;3.72;;
32038;SDS011;18549;42.286;22.688;2022-10-26T11:00:13;9.50;;;3.60;;
32038;SDS011;18549;42.286;22.688;2022-10-26T11:02:49;13.52;;;2.90;;
32038;SDS011;18549;42.286;22.688;2022-10-26T11:05:31;11.52;;;3.08;;
32038;SDS011;18549;42.286;22.688;2022-10-26T11:08:05;17.55;;;3.97;;
32038;SDS011;18549;42.286;22.688;2022-10-26T11:10:37;13.35;;;4.12;;
32038;SDS011;18549;42.286;22.688;2022-10-26T11:13:12;10.70;;;4.25;;
32038;SDS011;18549;42.286;22.688;2022-10-26T11:15:44;12.43;;;3.85;;
32038;SDS011;18549;42.286;22.688;2022-10-26T11:18:16;13.27;;;3.53;;
32038;SDS011;18549;42.286;22.688;2022-10-26T11:20:48;9.57;;;3.33;;
32038;SDS011;18549;42.286;22.688;2022-10-26T11:23:22;10.15;;;3.90;;
32038;SDS011;18549;42.286;22.688;2022-10-26T11:25:58;13.95;;;4.00;;
32038;SDS011;18549;42.286;22.688;2022-10-26T11:28:36;12.52;;;3.37;;
32038;SDS011;18549;42.286;22.688;2022-10-26T11:31:09;15.05;;;4.18;;
32038;SDS011;18549;42.286;22.688;2022-10-26T11:33:41;13.20;;;4.03;;
32038;SDS011;18549;42.286;22.688;2022-10-26T11:36:12;17.17;;;6.03;;
32038;SDS011;18549;42.286;22.688;2022-10-26T11:38:45;8.18;;;3.78;;
32038;SDS011;18549;42.286;22.688;2022-10-26T11:41:17;9.73;;;4.32;;
32038;SDS011;18549;42.286;22.688;2022-10-26T11:43:50;13.88;;;3.12;;
32038;SDS011;18549;42.286;22.688;2022-10-26T11:46:23;19.67;;;4.20;;
32038;SDS011;18549;42.286;22.688;2022-10-26T11:48:55;13.77;;;3.60;;
32038;SDS011;18549;42.286;22.688;2022-10-26T11:51:32;16.12;;;4.18;;
32038;SDS011;18549;42.286;22.688;2022-10-26T11:54:07;18.10;;;3.75;;
32038;SDS011;18549;42.286;22.688;2022-10-26T11:56:39;24.30;;;3.95;;
32038;SDS011;18549;42.286;22.688;2022-10-26T11:59:16;16.10;;;3.50;;
32038;SDS011;18549;42.286;22.688;2022-10-26T12:01:46;13.32;;;4.75;;
32038;SDS011;18549;42.286;22.688;2022-10-26T12:04:16;12.15;;;2.90;;
32038;SDS011;18549;42.286;22.688;2022-10-26T12:06:46;16.05;;;3.15;;
32038;SDS011;18549;42.286;22.688;2022-10-26T12:09:17;11.82;;;3.60;;
32038;SDS011;18549;42.286;22.688;2022-10-26T12:11:48;11.32;;;2.70;;
32038;SDS011;18549;42.286;22.688;2022-10-26T12:14:22;8.85;;;3.17;;
32038;SDS011;18549;42.286;22.688;2022-10-26T12:16:56;14.80;;;4.25;;
32038;SDS011;18549;42.286;22.688;2022-10-26T12:19:32;11.38;;;3.53;;
32038;SDS011;18549;42.286;22.688;2022-10-26T12:22:06;12.25;;;4.53;;
32038;SDS011;18549;42.286;22.688;2022-10-26T12:24:38;11.15;;;3.47;;
32038;SDS011;18549;42.286;22.688;2022-10-26T12:32:49;12.90;;;3.53;;
32038;SDS011;18549;42.286;22.688;2022-10-26T12:35:28;9.93;;;3.10;;
32038;SDS011;18549;42.286;22.688;2022-10-26T12:37:58;8.60;;;3.10;;
32038;SDS011;18549;42.286;22.688;2022-10-26T12:40:42;11.30;;;3.15;;
32038;SDS011;18549;42.286;22.688;2022-10-26T12:52:24;12.82;;;3.65;;
32038;SDS011;18549;42.286;22.688;2022-10-26T12:55:19;14.73;;;3.65;;
32038;SDS011;18549;42.286;22.688;2022-10-26T12:58:11;14.95;;;4.22;;
32038;SDS011;18549;42.286;22.688;2022-10-26T13:01:08;10.25;;;4.40;;
32038;SDS011;18549;42.286;22.688;2022-10-26T13:03:47;10.70;;;3.55;;
32038;SDS011;18549;42.286;22.688;2022-10-26T13:06:29;11.88;;;4.18;;
32038;SDS011;18549;42.286;22.688;2022-10-26T13:09:08;15.57;;;4.05;;
32038;SDS011;18549;42.286;22.688;2022-10-26T13:11:43;10.98;;;4.30;;
32038;SDS011;18549;42.286;22.688;2022-10-26T13:14:17;9.23;;;3.42;;
32038;SDS011;18549;42.286;22.688;2022-10-26T13:16:47;9.75;;;3.22;;
32038;SDS011;18549;42.286;22.688;2022-10-26T13:19:22;16.45;;;4.07;;
32038;SDS011;18549;42.286;22.688;2022-10-26T13:21:52;17.00;;;3.55;;
32038;SDS011;18549;42.286;22.688;2022-10-26T13:24:27;17.10;;;3.20;;
32038;SDS011;18549;42.286;22.688;2022-10-26T13:30:17;9.98;;;3.22;;
32038;SDS011;18549;42.286;22.688;2022-10-26T13:32:48;14.02;;;3.80;;
32038;SDS011;18549;42.286;22.688;2022-10-26T13:35:19;12.65;;;5.87;;
32038;SDS011;18549;42.286;22.688;2022-10-26T13:37:50;17.62;;;6.85;;
32038;SDS011;18549;42.286;22.688;2022-10-26T13:40:21;14.57;;;5.12;;
32038;SDS011;18549;42.286;22.688;2022-10-26T13:42:51;13.55;;;4.12;;
32038;SDS011;18549;42.286;22.688;2022-10-26T13:45:21;6.75;;;3.80;;
32038;SDS011;18549;42.286;22.688;2022-10-26T13:47:54;13.32;;;3.72;;
32038;SDS011;18549;42.286;22.688;2022-10-26T13:50:25;15.07;;;3.78;;
32038;SDS011;18549;42.286;22.688;2022-10-26T13:52:54;26.17;;;3.85;;
32038;SDS011;18549;42.286;22.688;2022-10-26T13:55:27;20.20;;;3.95;;
32038;SDS011;18549;42.286;22.688;2022-10-26T13:58:01;18.02;;;3.70;;
32038;SDS011;18549;42.286;22.688;2022-10-26T14:00:50;13.75;;;3.70;;
32038;SDS011;18549;42.286;22.688;2022-10-26T14:03:26;21.30;;;4.80;;
32038;SDS011;18549;42.286;22.688;2022-10-26T14:05:54;7.50;;;3.58;;
32038;SDS011;18549;42.286;22.688;2022-10-26T14:08:22;15.90;;;4.35;;
32038;SDS011;18549;42.286;22.688;2022-10-26T14:10:55;13.07;;;4.15;;
32038;SDS011;18549;42.286;22.688;2022-10-26T14:13:25;14.93;;;3.75;;
32038;SDS011;18549;42.286;22.688;2022-10-26T14:15:53;10.13;;;4.00;;
32038;SDS011;18549;42.286;22.688;2022-10-26T14:18:24;9.40;;;3.47;;
32038;SDS011;18549;42.286;22.688;2022-10-26T14:20:54;15.45;;;4.47;;
32038;SDS011;18549;42.286;22.688;2022-10-26T14:23:29;11.85;;;4.12;;
32038;SDS011;18549;42.286;22.688;2022-10-26T14:26:01;12.37;;;4.10;;
32038;SDS011;18549;42.286;22.688;2022-10-26T14:28:30;13.70;;;3.87;;
32038;SDS011;18549;42.286;22.688;2022-10-26T14:31:11;16.98;;;3.90;;
32038;SDS011;18549;42.286;22.688;2022-10-26T14:33:39;14.05;;;4.25;;
32038;SDS011;18549;42.286;22.688;2022-10-26T14:36:06;13.98;;;4.05;;
32038;SDS011;18549;42.286;22.688;2022-10-26T14:38:37;20.77;;;3.95;;
32038;SDS011;18549;42.286;22.688;2022-10-26T14:41:13;11.43;;;4.03;;
32038;SDS011;18549;42.286;22.688;2022-10-26T14:43:42;25.40;;;4.50;;
32038;SDS011;18549;42.286;22.688;2022-10-26T14:46:11;29.98;;;5.22;;
32038;SDS011;18549;42.286;22.688;2022-10-26T14:48:52;21.65;;;4.22;;
32038;SDS011;18549;42.286;22.688;2022-10-26T14:51:33;18.27;;;4.40;;
32038;SDS011;18549;42.286;22.688;2022-10-26T14:54:02;12.77;;;4.53;;
32038;SDS011;18549;42.286;22.688;2022-10-26T14:56:38;17.05;;;4.93;;
32038;SDS011;18549;42.286;22.688;2022-10-26T14:59:09;29.52;;;7.62;;
32038;SDS011;18549;42.286;22.688;2022-10-26T15:01:46;11.55;;;4.20;;
32038;SDS011;18549;42.286;22.688;2022-10-26T15:04:34;39.97;;;18.25;;
32038;SDS011;18549;42.286;22.688;2022-10-26T15:07:14;78.40;;;46.60;;